Myrtle Beach, SC (29572)

6:07 PM EDT on May 25, 2017 (GMT -0400)
Briarcliffe Acres | | Change Station
Active Advisory: Beach Hazard Statement

Elev 3 ft 33.79 °N, 78.74 °W | Updated 1 second ago

Partly Cloudy
Partly Cloudy
74.3 °F
Feels Like 77 °F
N
8.5
Wind Variable Wind from West
Gusts 19.0 mph

Today
High -- | Low -- °F
--% Chance of Precip.
Yesterday
High -- | Low -- °F
Precip. -- in
Pressure 29.68 in
Visibility 10.0 miles
Clouds Few 5500 ft
Heat Index 77 °F
Dew Point 56 °F
Humidity 52%
Rainfall 0.70 in
Snow Depth Not available.
6:08 AM 8:16 PM
New Moon, 0% visible
METAR KCRE 252153Z 27015G22KT 10SM FEW055 23/12 A2968 RMK AO1 SLP051 T02330117
Pressure 29.68 in
Visibility 10.0 miles
Clouds Few 5500 ft
Heat Index 77 °F
Dew Point 56 °F
Humidity 52%
Rainfall 0.70 in
Snow Depth Not available.
6:08 AM 8:16 PM
New Moon, 0% visible
METAR KCRE 252153Z 27015G22KT 10SM FEW055 23/12 A2968 RMK AO1 SLP051 T02330117

Get Your Daily Forecast Email!

Thanks for signing up!

Be on the lookout for a verification email in your inbox.

You'll start receiving severe weather alerts in your inbox..

×

10-Day Weather Forecast

Almanac

Astronomy

May. 25, 2017 Rise Set
Actual Time
Civil Twilight
Nautical Twilight
Astronomical Twilight
Moon
Length of Visible Light
Length of Day
Tomorrow will be .
, % of the Moon is Illuminated

Today's Extremes

State Highs State Lows

Community

WunderPhotos

Category 6

Welcome to Category 6. This is the collective home for Weather Underground's featured writeups by Dr. Jeff Masters (right), Bob Henson (left), Chris Burt, and other regular contributors.

Nearby

Air Quality

  Air Quality AQ Index Pollutant
Not available.

Snow Depth

Station Depth Elevation

Earthquake Activity

City Distance Mag. Time & Date
Minimum magnitude displayed is 2.5.

Coastal Water Temperatures

Place Temperature

Stations

Nearby Weather Stations

Station Location Temp. Windchill Dew Point Humidity Wind Precip. Elev Updated Type
                   

Watches & Warnings

Beach Hazard Statement
Issued: 3:04 PM EDT May. 25, 2017 – National Weather Service

... Beach hazards statement remains in effect until 9 PM EDT this
evening...

Strong southwesterly winds will continue to produce a strong
longshore current along the beaches in Pender... New Hanover...
Brunswick... Horry... and Georgetown counties through this evening.

27



304 PM EDT Thu may 25 2017

... Beach hazards statement remains in effect until 9 PM EDT this
evening...

Strong southwesterly winds will continue to produce a strong
longshore current along the beaches in Pender... New Hanover...
Brunswick... Horry... and Georgetown counties through this evening.

27